Time;durP1;ratioP1;P1;durP2;ratioP2;P2;SDS_P1;SDS_P2;PMS_P1;PMS_P2;Temp;Humidity;BMP_temperature;BMP_pressure;BME280_temperature;BME280_humidity;BME280_pressure;Samples;Min_cycle;Max_cycle;Signal;HPM_P1;HPM_P2
2023/08/21 00:01:23;;;;;;;;;;;23.90;99.90;;;;;;5063084;28;19991;-71
2023/08/21 00:03:50;;;;;;;;;;;23.80;99.90;;;;;;5063038;28;19987;-71
2023/08/21 00:06:17;;;;;;;;;;;23.80;99.90;;;;;;5063300;28;19991;-70
2023/08/21 00:08:43;;;;;;;;;;;23.80;99.90;;;;;;5063242;28;19921;-71
2023/08/21 00:11:11;;;;;;;;;;;23.70;99.90;;;;;;5064695;28;19973;-71
2023/08/21 00:13:38;;;;;;;;;;;23.70;99.90;;;;;;5066481;28;20255;-71
2023/08/21 00:16:04;;;;;;;;;;;23.60;99.90;;;;;;5066886;28;19927;-71
2023/08/21 00:18:31;;;;;;;;;;;23.60;99.90;;;;;;5066861;28;19988;-71
2023/08/21 00:20:57;;;;;;;;;;;23.60;99.90;;;;;;5066407;28;19927;-71
2023/08/21 00:23:24;;;;;;;;;;;23.60;99.90;;;;;;5066766;28;19927;-71
2023/08/21 00:25:51;;;;;;;;;;;23.60;99.90;;;;;;5066532;28;19991;-70
2023/08/21 00:28:19;;;;;;;;;;;23.60;99.90;;;;;;5066902;28;19921;-72
2023/08/21 00:30:45;;;;;;;;;;;23.60;99.90;;;;;;5066408;28;19987;-70
2023/08/21 00:33:12;;;;;;;;;;;23.60;99.90;;;;;;5066535;28;19959;-71
2023/08/21 00:35:39;;;;;;;;;;;23.60;99.90;;;;;;5066739;28;20167;-70
2023/08/21 00:38:05;;;;;;;;;;;23.60;99.90;;;;;;5066683;28;19952;-71
2023/08/21 00:40:32;;;;;;;;;;;23.60;99.90;;;;;;5066497;28;19921;-72
2023/08/21 00:42:59;;;;;;;;;;;23.60;99.90;;;;;;5065968;28;19952;-71
2023/08/21 00:45:27;;;;;;;;;;;23.60;99.90;;;;;;5066268;28;19929;-71
2023/08/21 00:47:53;;;;;;;;;;;23.50;99.90;;;;;;5066315;28;19956;-70
2023/08/21 00:50:20;;;;;;;;;;;23.50;99.90;;;;;;5066026;28;19948;-71
2023/08/21 00:52:47;;;;;;;;;;;23.50;99.90;;;;;;5066187;28;20000;-71
2023/08/21 00:55:14;;;;;;;;;;;23.50;99.90;;;;;;5066042;28;19988;-70
2023/08/21 00:57:41;;;;;;;;;;;23.50;99.90;;;;;;5065883;28;20255;-71
2023/08/21 01:00:10;;;;;;;;;;;23.50;99.90;;;;;;5066042;28;20000;-71
2023/08/21 01:02:38;;;;;;;;;;;23.40;99.90;;;;;;5066024;28;19920;-71
2023/08/21 01:05:05;;;;;;;;;;;23.40;99.90;;;;;;5065865;28;19987;-71
2023/08/21 01:07:33;;;;;;;;;;;23.50;99.90;;;;;;5065738;28;19921;-71
2023/08/21 01:10:02;;;;;;;;;;;23.50;99.90;;;;;;5065999;28;19920;-71
2023/08/21 01:12:34;;;;;;;;;;;23.40;99.90;;;;;;5065768;28;19967;-70
2023/08/21 01:15:02;;;;;;;;;;;23.50;99.90;;;;;;5065755;28;19921;-71
2023/08/21 01:17:29;;;;;;;;;;;23.50;99.90;;;;;;5065980;28;19927;-71
2023/08/21 01:19:58;;;;;;;;;;;23.50;99.90;;;;;;5065262;28;19979;-71
2023/08/21 01:22:26;;;;;;;;;;;23.50;99.90;;;;;;5064249;28;19985;-71
2023/08/21 01:24:54;;;;;;;;;;;23.50;99.90;;;;;;5065817;28;19980;-71
2023/08/21 01:27:22;;;;;;;;;;;23.50;99.90;;;;;;5065419;28;19984;-71
2023/08/21 01:29:48;;;;;;;;;;;23.50;99.90;;;;;;5065345;28;20208;-71
2023/08/21 01:32:22;;;;;;;;;;;23.50;99.90;;;;;;5065600;28;19943;-71
2023/08/21 01:34:50;;;;;;;;;;;23.50;99.90;;;;;;5045518;28;20164;-71
2023/08/21 01:37:18;;;;;;;;;;;23.50;99.90;;;;;;5045331;28;20259;-70
2023/08/21 01:39:44;;;;;;;;;;;23.50;99.90;;;;;;5045518;28;19928;-71
2023/08/21 01:42:12;;;;;;;;;;;23.50;99.90;;;;;;5045053;28;19984;-71
2023/08/21 01:44:39;;;;;;;;;;;23.50;99.90;;;;;;5045014;28;19984;-70
2023/08/21 01:47:06;;;;;;;;;;;23.50;99.90;;;;;;5045361;28;19984;-71
2023/08/21 01:49:32;;;;;;;;;;;23.50;99.90;;;;;;5045368;28;20149;-71
2023/08/21 01:51:59;;;;;;;;;;;23.50;99.90;;;;;;5044901;28;19921;-71
2023/08/21 01:54:26;;;;;;;;;;;23.50;99.90;;;;;;5044920;28;20279;-71
2023/08/21 01:56:52;;;;;;;;;;;23.40;99.90;;;;;;5055901;28;19920;-71
2023/08/21 01:59:20;;;;;;;;;;;23.40;99.90;;;;;;5064496;28;19986;-71
2023/08/21 02:01:47;;;;;;;;;;;23.40;99.90;;;;;;5064643;28;19992;-71
2023/08/21 02:04:13;;;;;;;;;;;23.40;99.90;;;;;;5064903;28;19996;-70
2023/08/21 02:06:40;;;;;;;;;;;23.40;99.90;;;;;;5064927;28;19984;-71
2023/08/21 02:09:06;;;;;;;;;;;23.30;99.90;;;;;;5064691;28;19979;-71
2023/08/21 02:11:33;;;;;;;;;;;23.30;99.90;;;;;;5064848;28;19920;-71
2023/08/21 02:14:00;;;;;;;;;;;23.30;99.90;;;;;;5064571;28;19932;-70
2023/08/21 02:16:28;;;;;;;;;;;23.30;99.90;;;;;;5064370;28;19991;-71
2023/08/21 02:18:55;;;;;;;;;;;23.30;99.90;;;;;;5064543;28;19921;-71
2023/08/21 02:21:21;;;;;;;;;;;23.20;99.90;;;;;;5063998;28;19927;-71
2023/08/21 02:23:48;;;;;;;;;;;23.20;99.90;;;;;;5064275;28;19971;-70
2023/08/21 02:26:16;;;;;;;;;;;23.20;99.90;;;;;;5064169;28;19984;-71
2023/08/21 02:28:43;;;;;;;;;;;23.20;99.90;;;;;;5064632;28;19921;-71
2023/08/21 02:31:10;;;;;;;;;;;23.20;99.90;;;;;;5064707;28;19927;-71
2023/08/21 02:33:38;;;;;;;;;;;23.20;99.90;;;;;;5063996;28;19956;-71
2023/08/21 02:36:07;;;;;;;;;;;23.10;99.90;;;;;;5064593;28;19996;-70
2023/08/21 02:38:34;;;;;;;;;;;23.20;99.90;;;;;;5063445;28;19956;-71
2023/08/21 02:41:01;;;;;;;;;;;23.10;99.90;;;;;;5064032;28;19987;-71
2023/08/21 02:43:27;;;;;;;;;;;23.10;99.90;;;;;;5063762;28;20260;-71
2023/08/21 02:45:54;;;;;;;;;;;23.10;99.90;;;;;;5064037;28;19983;-71
2023/08/21 02:48:21;;;;;;;;;;;23.10;99.90;;;;;;5063892;28;20007;-71
2023/08/21 02:50:49;;;;;;;;;;;23.10;99.90;;;;;;5064073;28;19920;-70
2023/08/21 02:53:15;;;;;;;;;;;23.10;99.90;;;;;;5063602;28;20167;-71
2023/08/21 02:55:42;;;;;;;;;;;23.10;99.90;;;;;;5064050;28;19921;-71
2023/08/21 02:58:09;;;;;;;;;;;23.10;99.90;;;;;;5063882;28;20226;-71
2023/08/21 03:00:36;;;;;;;;;;;23.10;99.90;;;;;;5063874;28;19929;-70
2023/08/21 03:03:03;;;;;;;;;;;23.10;99.90;;;;;;5063332;28;20292;-71
2023/08/21 03:05:29;;;;;;;;;;;23.10;99.90;;;;;;5063836;28;19988;-71
2023/08/21 03:07:57;;;;;;;;;;;23.10;99.90;;;;;;5063408;28;19984;-71
2023/08/21 03:10:24;;;;;;;;;;;23.10;99.90;;;;;;5063540;28;19920;-71
2023/08/21 03:12:51;;;;;;;;;;;23.00;99.90;;;;;;5063428;28;19921;-71
2023/08/21 03:15:17;;;;;;;;;;;22.90;99.90;;;;;;5063687;28;20165;-71
2023/08/21 03:17:44;;;;;;;;;;;22.80;99.90;;;;;;5063601;28;19984;-71
2023/08/21 03:20:11;;;;;;;;;;;22.70;99.90;;;;;;5063052;28;20287;-70
2023/08/21 03:22:38;;;;;;;;;;;22.70;99.90;;;;;;5063413;28;19967;-71
2023/08/21 03:25:06;;;;;;;;;;;22.70;99.90;;;;;;5063579;28;19920;-71
2023/08/21 03:27:33;;;;;;;;;;;22.70;99.90;;;;;;5063632;28;19983;-71
2023/08/21 03:30:00;;;;;;;;;;;22.60;99.90;;;;;;5063389;28;20011;-71
2023/08/21 03:32:27;;;;;;;;;;;22.60;99.90;;;;;;5063376;28;19920;-71
2023/08/21 03:34:54;;;;;;;;;;;22.70;99.90;;;;;;5063143;28;19984;-71
2023/08/21 03:37:20;;;;;;;;;;;22.60;99.90;;;;;;5062763;28;19920;-71
2023/08/21 03:39:47;;;;;;;;;;;22.60;99.90;;;;;;5063512;28;19983;-71
2023/08/21 03:42:15;;;;;;;;;;;22.60;99.90;;;;;;5063024;28;19921;-71
2023/08/21 03:44:41;;;;;;;;;;;22.60;99.90;;;;;;5063148;28;19999;-71
2023/08/21 03:47:08;;;;;;;;;;;22.60;99.90;;;;;;5066606;28;19927;-71
2023/08/21 03:49:35;;;;;;;;;;;22.60;99.90;;;;;;5067569;28;19985;-71
2023/08/21 03:52:01;;;;;;;;;;;22.60;99.90;;;;;;5067205;28;19992;-71
2023/08/21 03:54:28;;;;;;;;;;;22.50;99.90;;;;;;5067646;28;19983;-71
2023/08/21 03:56:55;;;;;;;;;;;22.50;99.90;;;;;;5067566;28;20001;-71
2023/08/21 03:59:23;;;;;;;;;;;22.50;99.90;;;;;;5067275;28;20163;-71
2023/08/21 04:01:50;;;;;;;;;;;22.50;99.90;;;;;;5066908;28;19924;-71
2023/08/21 04:04:16;;;;;;;;;;;22.50;99.90;;;;;;5067010;28;19921;-71
2023/08/21 04:06:43;;;;;;;;;;;22.50;99.90;;;;;;5067293;28;20093;-71
2023/08/21 04:09:10;;;;;;;;;;;22.50;99.90;;;;;;5067282;28;19984;-71
2023/08/21 04:11:37;;;;;;;;;;;22.50;99.90;;;;;;5067006;28;19955;-71
2023/08/21 04:14:04;;;;;;;;;;;22.40;99.90;;;;;;5066923;28;20116;-71
2023/08/21 04:16:32;;;;;;;;;;;22.30;99.90;;;;;;5067072;28;19984;-71
2023/08/21 04:18:59;;;;;;;;;;;22.30;99.90;;;;;;5067079;28;20158;-71
2023/08/21 04:21:25;;;;;;;;;;;22.30;99.90;;;;;;5066454;28;20171;-71
2023/08/21 04:23:53;;;;;;;;;;;22.30;99.90;;;;;;5066616;28;19921;-70
2023/08/21 04:26:20;;;;;;;;;;;22.30;99.90;;;;;;5066769;28;20128;-70
2023/08/21 04:28:47;;;;;;;;;;;22.20;99.90;;;;;;5066817;28;19975;-71
2023/08/21 04:31:13;;;;;;;;;;;22.20;99.90;;;;;;5066737;28;19927;-71
2023/08/21 04:33:41;;;;;;;;;;;22.20;99.90;;;;;;5066495;28;19921;-71
2023/08/21 04:36:08;;;;;;;;;;;22.10;99.90;;;;;;5066226;28;19983;-70
2023/08/21 04:38:37;;;;;;;;;;;22.10;99.90;;;;;;5066116;28;19984;-71
2023/08/21 04:41:07;;;;;;;;;;;22.10;99.90;;;;;;5066234;28;19987;-70
2023/08/21 04:43:34;;;;;;;;;;;22.10;99.90;;;;;;5065992;28;20204;-70
2023/08/21 04:46:01;;;;;;;;;;;22.10;99.90;;;;;;5066464;28;19921;-69
2023/08/21 04:48:27;;;;;;;;;;;22.10;99.90;;;;;;5066437;28;19984;-68
2023/08/21 04:50:55;;;;;;;;;;;22.10;99.90;;;;;;5065937;28;20119;-67
2023/08/21 04:53:23;;;;;;;;;;;22.20;99.90;;;;;;5064902;28;19989;-68
2023/08/21 04:55:49;;;;;;;;;;;22.20;99.90;;;;;;5066212;28;19927;-67
2023/08/21 04:58:17;;;;;;;;;;;22.20;99.90;;;;;;5065504;28;19988;-68
2023/08/21 05:00:45;;;;;;;;;;;22.20;99.90;;;;;;5065709;28;19921;-68
2023/08/21 05:03:12;;;;;;;;;;;22.20;99.90;;;;;;5064994;28;19995;-68
2023/08/21 05:05:38;;;;;;;;;;;22.20;99.90;;;;;;5066125;28;19928;-68
2023/08/21 05:08:07;;;;;;;;;;;22.20;99.90;;;;;;5065824;28;20200;-68
2023/08/21 05:10:33;;;;;;;;;;;22.20;99.90;;;;;;5065980;28;19921;-68
2023/08/21 05:13:00;;;;;;;;;;;22.20;99.90;;;;;;5065421;28;19984;-68
2023/08/21 05:15:26;;;;;;;;;;;22.20;99.90;;;;;;5065557;28;19987;-68
2023/08/21 05:17:53;;;;;;;;;;;22.20;99.90;;;;;;5065689;28;19921;-70
2023/08/21 05:20:20;;;;;;;;;;;22.20;99.90;;;;;;5065666;28;19921;-72
2023/08/21 05:22:46;;;;;;;;;;;22.30;99.90;;;;;;5065020;28;20377;-70
2023/08/21 05:25:15;;;;;;;;;;;22.30;99.90;;;;;;5065027;28;19920;-70
2023/08/21 05:27:41;;;;;;;;;;;22.30;99.90;;;;;;5065579;28;20140;-70
2023/08/21 05:30:10;;;;;;;;;;;22.30;99.90;;;;;;5064613;28;19981;-70
2023/08/21 05:32:36;;;;;;;;;;;22.40;99.90;;;;;;5065495;28;19921;-70
2023/08/21 05:35:04;;;;;;;;;;;22.40;99.90;;;;;;5065197;28;19963;-70
2023/08/21 05:37:30;;;;;;;;;;;22.40;99.90;;;;;;5065284;28;20208;-70
2023/08/21 05:39:57;;;;;;;;;;;22.40;99.90;;;;;;5065580;28;19928;-70
2023/08/21 05:42:25;;;;;;;;;;;22.40;99.90;;;;;;5064796;28;19921;-70
2023/08/21 05:44:52;;;;;;;;;;;22.50;99.90;;;;;;5065232;28;19956;-70
2023/08/21 05:47:18;;;;;;;;;;;22.50;99.90;;;;;;5065395;28;19988;-69
2023/08/21 05:49:45;;;;;;;;;;;22.50;99.90;;;;;;5064820;28;20209;-69
2023/08/21 05:52:11;;;;;;;;;;;22.50;99.90;;;;;;5064684;28;19991;-69
2023/08/21 05:54:38;;;;;;;;;;;22.60;99.90;;;;;;5065196;28;20115;-69
2023/08/21 05:57:05;;;;;;;;;;;22.60;99.90;;;;;;5064985;28;19921;-69
2023/08/21 05:59:33;;;;;;;;;;;22.60;99.90;;;;;;5064706;28;19921;-69
2023/08/21 06:02:00;;;;;;;;;;;22.60;99.90;;;;;;5064704;28;19964;-69
2023/08/21 06:04:27;;;;;;;;;;;22.60;99.90;;;;;;5065066;28;19921;-69
2023/08/21 06:06:53;;;;;;;;;;;22.70;99.90;;;;;;5064915;28;19921;-69
2023/08/21 06:09:20;;;;;;;;;;;22.70;99.90;;;;;;5064174;28;19921;-70
2023/08/21 06:11:47;;;;;;;;;;;22.70;99.90;;;;;;5064473;28;19988;-69
2023/08/21 06:14:13;;;;;;;;;;;22.80;99.90;;;;;;5064714;28;19980;-70
2023/08/21 06:16:43;;;;;;;;;;;22.80;99.90;;;;;;5064295;28;19944;-69
2023/08/21 06:19:10;;;;;;;;;;;22.90;99.90;;;;;;5064590;28;19921;-69
2023/08/21 06:21:36;;;;;;;;;;;22.90;99.90;;;;;;5064334;28;20208;-69
2023/08/21 06:24:03;;;;;;;;;;;22.90;99.90;;;;;;5064511;28;19952;-69
2023/08/21 06:26:30;;;;;;;;;;;23.00;99.90;;;;;;5064400;28;19991;-69
2023/08/21 06:28:56;;;;;;;;;;;23.10;99.90;;;;;;5064301;28;19988;-70
2023/08/21 06:31:23;;;;;;;;;;;23.10;99.90;;;;;;5064050;28;19948;-68
2023/08/21 06:33:51;;;;;;;;;;;23.20;99.90;;;;;;5063779;28;20283;-69
2023/08/21 06:36:18;;;;;;;;;;;23.20;99.90;;;;;;5064436;28;19963;-69
2023/08/21 06:38:44;;;;;;;;;;;23.20;99.90;;;;;;5064294;28;19988;-70
2023/08/21 06:41:11;;;;;;;;;;;23.20;99.90;;;;;;5064371;28;19921;-68
2023/08/21 06:43:37;;;;;;;;;;;23.30;99.90;;;;;;5063691;28;19999;-69
2023/08/21 06:46:04;;;;;;;;;;;23.30;99.90;;;;;;5063959;28;20148;-70
2023/08/21 06:48:31;;;;;;;;;;;23.30;99.90;;;;;;5064182;28;19921;-70
2023/08/21 06:50:59;;;;;;;;;;;23.30;99.90;;;;;;5064091;28;19966;-71
2023/08/21 06:53:25;;;;;;;;;;;23.40;99.90;;;;;;5063504;28;19983;-70
2023/08/21 06:55:52;;;;;;;;;;;23.40;99.90;;;;;;5063997;28;19987;-70
2023/08/21 06:58:19;;;;;;;;;;;23.50;99.90;;;;;;5063702;28;20223;-70
2023/08/21 07:00:45;;;;;;;;;;;23.60;99.90;;;;;;5063808;28;19983;-70
2023/08/21 07:03:12;;;;;;;;;;;23.60;99.90;;;;;;5059739;28;20090;-71
2023/08/21 07:05:38;;;;;;;;;;;23.70;99.90;;;;;;5061376;28;19987;-70
2023/08/21 07:08:06;;;;;;;;;;;23.80;99.90;;;;;;5063331;28;19952;-71
2023/08/21 07:10:36;;;;;;;;;;;23.80;99.90;;;;;;5062859;28;19944;-70
2023/08/21 07:13:03;;;;;;;;;;;23.80;99.90;;;;;;5067109;28;19995;-70
2023/08/21 07:15:30;;;;;;;;;;;23.80;99.90;;;;;;5057481;28;19924;-70
2023/08/21 07:17:56;;;;;;;;;;;23.90;99.90;;;;;;5063152;28;19987;-70
2023/08/21 07:20:23;;;;;;;;;;;24.00;99.90;;;;;;5063208;28;19921;-71
2023/08/21 07:22:50;;;;;;;;;;;24.00;99.90;;;;;;5062961;28;20220;-71
2023/08/21 07:25:18;;;;;;;;;;;24.10;99.90;;;;;;5063964;28;19929;-70
2023/08/21 07:27:45;;;;;;;;;;;24.10;99.90;;;;;;5083695;28;19920;-70
2023/08/21 07:30:11;;;;;;;;;;;24.20;99.90;;;;;;5063387;28;19927;-70
2023/08/21 07:32:38;;;;;;;;;;;24.20;99.90;;;;;;5062986;28;19921;-71
2023/08/21 07:35:05;;;;;;;;;;;24.30;99.90;;;;;;5063530;28;19983;-69
2023/08/21 07:37:32;;;;;;;;;;;24.40;99.90;;;;;;5063105;28;19956;-71
2023/08/21 07:39:58;;;;;;;;;;;24.50;99.90;;;;;;5062761;28;19956;-71
2023/08/21 07:42:26;;;;;;;;;;;24.60;99.90;;;;;;5063088;28;19921;-71
2023/08/21 07:44:53;;;;;;;;;;;24.70;99.90;;;;;;5062853;28;19983;-70
2023/08/21 07:47:20;;;;;;;;;;;24.80;99.90;;;;;;5062523;28;20346;-71
2023/08/21 07:49:46;;;;;;;;;;;24.90;99.90;;;;;;5062385;28;20148;-71
2023/08/21 07:52:13;;;;;;;;;;;25.00;99.90;;;;;;5061159;28;19965;-70
2023/08/21 07:54:40;;;;;;;;;;;25.10;99.90;;;;;;5062532;28;20328;-70
2023/08/21 07:57:06;;;;;;;;;;;25.20;99.90;;;;;;5063223;28;19983;-71
2023/08/21 07:59:35;;;;;;;;;;;25.30;99.90;;;;;;5063003;28;20156;-71
2023/08/21 08:02:04;;;;;;;;;;;25.40;99.90;;;;;;5059421;28;20266;-71
2023/08/21 08:04:30;;;;;;;;;;;25.40;99.90;;;;;;5062996;28;19924;-70
2023/08/21 08:06:57;;;;;;;;;;;25.50;99.90;;;;;;5062216;28;20276;-70
2023/08/21 08:09:24;;;;;;;;;;;25.50;99.90;;;;;;5067336;28;19984;-70
2023/08/21 08:11:50;;;;;;;;;;;25.60;99.90;;;;;;5082905;28;20208;-69
2023/08/21 08:14:17;;;;;;;;;;;25.70;99.90;;;;;;5069851;28;19980;-71
2023/08/21 08:16:45;;;;;;;;;;;25.80;99.90;;;;;;5062583;28;19928;-71
2023/08/21 08:19:12;;;;;;;;;;;26.00;99.90;;;;;;5062853;28;19920;-71
2023/08/21 08:21:38;;;;;;;;;;;26.10;99.90;;;;;;5078580;28;19984;-70
2023/08/21 08:24:05;;;;;;;;;;;26.20;99.90;;;;;;5062616;28;19956;-71
2023/08/21 08:26:32;;;;;;;;;;;26.40;99.90;;;;;;5062852;28;19944;-75
2023/08/21 08:28:58;;;;;;;;;;;26.40;99.90;;;;;;5062971;28;19972;-70
2023/08/21 08:31:27;;;;;;;;;;;26.50;99.90;;;;;;5063060;28;20216;-71
2023/08/21 08:33:55;;;;;;;;;;;26.60;99.90;;;;;;5066764;28;19920;-70
2023/08/21 08:36:21;;;;;;;;;;;26.80;99.90;;;;;;5066992;28;19979;-70
2023/08/21 08:38:48;;;;;;;;;;;26.80;99.90;;;;;;5066672;28;20176;-71
2023/08/21 08:41:31;;;;;;;;;;;26.90;99.90;;;;;;5066238;28;20299;-70
2023/08/21 08:43:58;;;;;;;;;;;27.00;99.90;;;;;;5066279;28;19988;-71
2023/08/21 08:46:25;;;;;;;;;;;27.00;99.90;;;;;;5066449;28;19983;-71
2023/08/21 08:48:51;;;;;;;;;;;27.10;99.90;;;;;;5066086;28;20167;-70
2023/08/21 08:51:19;;;;;;;;;;;27.20;99.90;;;;;;5065801;28;20280;-72
2023/08/21 08:53:46;;;;;;;;;;;27.30;99.90;;;;;;5066043;28;19928;-69
2023/08/21 08:56:13;;;;;;;;;;;27.30;99.90;;;;;;5066042;28;19927;-69
2023/08/21 08:58:42;;;;;;;;;;;27.40;99.90;;;;;;5066063;28;19920;-70
2023/08/21 09:01:10;;;;;;;;;;;27.40;99.90;;;;;;5065537;28;19921;-71
2023/08/21 09:03:37;;;;;;;;;;;27.40;99.90;;;;;;5065773;28;19921;-70
2023/08/21 09:06:04;;;;;;;;;;;27.40;99.90;;;;;;5065825;28;19991;-71
2023/08/21 09:08:32;;;;;;;;;;;27.50;99.90;;;;;;5065859;28;19924;-72
2023/08/21 09:11:01;;;;;;;;;;;27.60;99.90;;;;;;5065470;28;19920;-70
2023/08/21 09:13:28;;;;;;;;;;;27.50;99.90;;;;;;5064892;28;20004;-70
2023/08/21 09:15:56;;;;;;;;;;;27.60;99.90;;;;;;5065527;28;20159;-70
2023/08/21 09:18:22;;;;;;;;;;;27.50;99.90;;;;;;5064942;28;19921;-70
2023/08/21 09:20:49;;;;;;;;;;;27.70;99.90;;;;;;5065316;28;19924;-70
2023/08/21 09:23:16;;;;;;;;;;;27.70;99.90;;;;;;5065071;28;19921;-70
2023/08/21 09:25:47;;;;;;;;;;;27.80;99.90;;;;;;5065257;28;19921;-70
2023/08/21 09:28:13;;;;;;;;;;;27.90;99.90;;;;;;5065409;28;19948;-69
2023/08/21 09:30:47;;;;;;;;;;;27.90;99.90;;;;;;5065453;28;19927;-69
2023/08/21 09:33:14;;;;;;;;;;;27.90;99.90;;;;;;5064385;28;19959;-70
2023/08/21 09:35:41;;;;;;;;;;;27.90;99.90;;;;;;5065214;28;19952;-71
2023/08/21 09:38:09;;;;;;;;;;;27.90;99.90;;;;;;5065396;28;19974;-70
2023/08/21 09:40:35;;;;;;;;;;;27.80;99.90;;;;;;5065065;28;19987;-70
2023/08/21 09:43:04;;;;;;;;;;;27.80;99.90;;;;;;5063781;28;20216;-70
2023/08/21 09:45:31;;;;;;;;;;;27.80;99.90;;;;;;5065319;28;20010;-69
2023/08/21 09:47:59;;;;;;;;;;;27.80;99.90;;;;;;5065311;28;19959;-70
2023/08/21 09:50:25;;;;;;;;;;;27.90;99.90;;;;;;5065591;28;20172;-70
2023/08/21 09:52:53;;;;;;;;;;;27.90;99.90;;;;;;5063441;28;20003;-69
2023/08/21 09:55:20;;;;;;;;;;;27.80;99.90;;;;;;5076118;28;19959;-69
2023/08/21 09:57:48;;;;;;;;;;;27.80;99.90;;;;;;5073710;28;20260;-69
2023/08/21 10:00:20;;;;;;;;;;;27.80;99.90;;;;;;5065025;28;19920;-70
2023/08/21 10:02:50;;;;;;;;;;;27.80;99.90;;;;;;5073260;28;19971;-70
2023/08/21 10:05:17;;;;;;;;;;;27.90;99.90;;;;;;5064850;28;19991;-70
2023/08/21 10:07:44;;;;;;;;;;;28.00;99.90;;;;;;5064711;28;20263;-70
2023/08/21 10:10:13;;;;;;;;;;;28.10;99.90;;;;;;5064083;28;20290;-69
2023/08/21 10:12:40;;;;;;;;;;;28.20;99.90;;;;;;5064528;28;20004;-69
2023/08/21 10:15:07;;;;;;;;;;;28.20;99.90;;;;;;5064774;28;19943;-69
2023/08/21 10:17:36;;;;;;;;;;;28.30;99.90;;;;;;5064884;28;19975;-69
2023/08/21 10:20:03;;;;;;;;;;;28.40;99.90;;;;;;5064126;28;19979;-70
2023/08/21 10:22:45;;;;;;;;;;;28.50;99.90;;;;;;5064109;28;20209;-69
2023/08/21 10:25:16;;;;;;;;;;;28.60;99.90;;;;;;5064200;28;19959;-69
2023/08/21 10:27:43;;;;;;;;;;;28.70;99.90;;;;;;5053413;28;19960;-70
2023/08/21 10:30:16;;;;;;;;;;;28.80;99.90;;;;;;5044542;28;19992;-69
2023/08/21 10:32:48;;;;;;;;;;;29.00;99.90;;;;;;5044167;28;19925;-71
2023/08/21 10:35:15;;;;;;;;;;;29.10;99.90;;;;;;5044429;28;20161;-70
2023/08/21 10:37:56;;;;;;;;;;;29.20;99.90;;;;;;5044130;28;19921;-70
2023/08/21 10:40:24;;;;;;;;;;;29.30;99.90;;;;;;5044694;28;19988;-70
2023/08/21 10:42:51;;;;;;;;;;;29.30;99.90;;;;;;5043818;28;20328;-69
2023/08/21 10:45:17;;;;;;;;;;;29.40;99.90;;;;;;5044425;28;19921;-70
2023/08/21 10:47:46;;;;;;;;;;;29.40;99.90;;;;;;5043980;28;20229;-71
2023/08/21 10:50:14;;;;;;;;;;;29.50;99.90;;;;;;5043811;28;19956;-71
2023/08/21 10:52:44;;;;;;;;;;;29.60;99.90;;;;;;5043894;28;20155;-70
2023/08/21 10:55:11;;;;;;;;;;;29.70;99.90;;;;;;5043918;28;20163;-70
2023/08/21 10:57:38;;;;;;;;;;;29.90;99.90;;;;;;5044204;28;19984;-71
2023/08/21 11:00:09;;;;;;;;;;;30.00;99.90;;;;;;5044026;28;19956;-70
2023/08/21 11:02:36;;;;;;;;;;;30.20;99.90;;;;;;5060833;28;19920;-70
2023/08/21 11:05:03;;;;;;;;;;;30.30;99.90;;;;;;5062682;28;19984;-70
2023/08/21 11:07:31;;;;;;;;;;;30.40;99.90;;;;;;5062897;28;20186;-70
2023/08/21 11:09:58;;;;;;;;;;;30.50;99.90;;;;;;5062034;28;19996;-70
2023/08/21 11:12:25;;;;;;;;;;;30.60;99.90;;;;;;5062398;28;20246;-70
2023/08/21 11:14:52;;;;;;;;;;;30.70;99.90;;;;;;5074387;28;19920;-70
2023/08/21 11:17:19;;;;;;;;;;;30.80;99.90;;;;;;5081297;28;19980;-71
2023/08/21 11:19:48;;;;;;;;;;;30.90;99.90;;;;;;5063330;28;19943;-71
2023/08/21 11:22:14;;;;;;;;;;;30.90;99.90;;;;;;5070655;28;19920;-71
2023/08/21 11:24:47;;;;;;;;;;;31.00;99.90;;;;;;5083480;28;19995;-70
2023/08/21 11:27:14;;;;;;;;;;;31.10;99.90;;;;;;5083038;28;19988;-70
2023/08/21 11:29:58;;;;;;;;;;;31.20;99.90;;;;;;5082824;28;19921;-70
2023/08/21 11:32:25;;;;;;;;;;;31.30;99.90;;;;;;5043107;28;20161;-70
2023/08/21 11:34:52;;;;;;;;;;;31.40;99.90;;;;;;5043251;28;19921;-71
2023/08/21 11:37:19;;;;;;;;;;;31.50;99.90;;;;;;5048649;28;19987;-70
2023/08/21 11:39:49;;;;;;;;;;;31.50;99.90;;;;;;5063411;28;19955;-71
2023/08/21 11:42:16;;;;;;;;;;;31.60;99.90;;;;;;5063184;28;20040;-70
2023/08/21 11:44:47;;;;;;;;;;;31.80;99.90;;;;;;5062874;28;20312;-70
2023/08/21 11:47:14;;;;;;;;;;;31.90;99.90;;;;;;5061106;28;19984;-70
2023/08/21 11:49:42;;;;;;;;;;;32.10;99.90;;;;;;5043095;28;19921;-71
2023/08/21 11:52:09;;;;;;;;;;;32.20;99.90;;;;;;5053588;28;20230;-70
2023/08/21 11:54:36;;;;;;;;;;;32.20;99.90;;;;;;5061579;28;20175;-70
2023/08/21 11:57:08;;;;;;;;;;;32.10;99.90;;;;;;5062509;28;19988;-70
2023/08/21 11:59:34;;;;;;;;;;;31.90;99.90;;;;;;5063095;28;19948;-71
2023/08/21 12:02:01;;;;;;;;;;;31.70;99.90;;;;;;5061953;28;20267;-70
2023/08/21 12:04:28;;;;;;;;;;;31.40;99.90;;;;;;5062734;28;20224;-70
2023/08/21 12:06:55;;;;;;;;;;;31.40;99.90;;;;;;5064667;28;19987;-74
2023/08/21 12:09:21;;;;;;;;;;;31.60;99.90;;;;;;5067661;28;19927;-78
2023/08/21 12:11:48;;;;;;;;;;;31.60;99.90;;;;;;5067640;28;19988;-77
2023/08/21 12:14:16;;;;;;;;;;;31.90;99.90;;;;;;5073727;28;19989;-70
2023/08/21 12:16:43;;;;;;;;;;;32.00;99.90;;;;;;5080237;28;19928;-71
2023/08/21 12:19:11;;;;;;;;;;;32.20;99.90;;;;;;5065999;28;19987;-70
2023/08/21 12:21:38;;;;;;;;;;;32.40;99.90;;;;;;5065960;28;19943;-70
2023/08/21 12:24:06;;;;;;;;;;;32.50;99.90;;;;;;5066336;28;20239;-71
2023/08/21 12:26:32;;;;;;;;;;;32.50;99.90;;;;;;5066688;28;19959;-70
2023/08/21 12:28:59;;;;;;;;;;;32.40;99.90;;;;;;5066745;28;19951;-70
2023/08/21 12:31:27;;;;;;;;;;;32.20;99.90;;;;;;5065944;28;19952;-70
2023/08/21 12:33:53;;;;;;;;;;;32.10;99.90;;;;;;5066232;28;19979;-70
2023/08/21 12:36:20;;;;;;;;;;;32.10;99.90;;;;;;5066694;28;20159;-69
2023/08/21 12:38:47;;;;;;;;;;;32.20;99.90;;;;;;5066726;28;19920;-71
2023/08/21 12:41:13;;;;;;;;;;;32.20;99.90;;;;;;5066566;28;19979;-70
2023/08/21 12:43:40;;;;;;;;;;;32.00;99.90;;;;;;5066411;28;19920;-70
2023/08/21 12:46:06;;;;;;;;;;;31.80;99.90;;;;;;5073920;28;19921;-70
2023/08/21 12:48:34;;;;;;;;;;;31.80;99.90;;;;;;5066082;28;19952;-70
2023/08/21 12:51:01;;;;;;;;;;;31.90;99.90;;;;;;5066168;28;20254;-70
2023/08/21 12:53:28;;;;;;;;;;;32.10;99.90;;;;;;5066011;28;19956;-69
2023/08/21 12:55:55;;;;;;;;;;;32.30;99.90;;;;;;5065843;28;20230;-70
2023/08/21 12:58:21;;;;;;;;;;;32.40;99.90;;;;;;5066174;28;19921;-70
2023/08/21 13:00:48;;;;;;;;;;;32.60;99.90;;;;;;5066080;28;19960;-70
2023/08/21 13:03:15;;;;;;;;;;;32.90;99.90;;;;;;5085118;28;19959;-70
2023/08/21 13:05:43;;;;;;;;;;;33.10;99.90;;;;;;5086179;28;19920;-70
2023/08/21 13:08:09;;;;;;;;;;;33.50;99.90;;;;;;5080609;28;19959;-70
2023/08/21 13:10:36;;;;;;;;;;;33.60;99.90;;;;;;5065611;28;19991;-70
2023/08/21 13:13:02;;;;;;;;;;;33.80;99.90;;;;;;5065423;28;20281;-69
2023/08/21 13:15:29;;;;;;;;;;;34.00;99.90;;;;;;5065625;28;19988;-70
2023/08/21 13:17:56;;;;;;;;;;;34.20;99.90;;;;;;5065326;28;20263;-70
2023/08/21 13:20:23;;;;;;;;;;;34.30;99.90;;;;;;5065326;28;19980;-70
2023/08/21 13:22:51;;;;;;;;;;;34.30;99.90;;;;;;5065490;28;20116;-70
2023/08/21 13:25:19;;;;;;;;;;;34.20;99.90;;;;;;5065446;28;19959;-70
2023/08/21 13:27:46;;;;;;;;;;;34.00;99.90;;;;;;5065682;28;19920;-70
2023/08/21 13:30:14;;;;;;;;;;;34.10;99.90;;;;;;5065552;28;19984;-70
2023/08/21 13:32:40;;;;;;;;;;;34.20;99.90;;;;;;5065237;28;20004;-70
2023/08/21 13:35:08;;;;;;;;;;;34.30;99.90;;;;;;5065321;28;19959;-70
2023/08/21 13:37:35;;;;;;;;;;;34.40;99.90;;;;;;5065160;28;19967;-70
2023/08/21 13:40:09;;;;;;;;;;;34.60;99.90;;;;;;5064956;28;20262;-70
2023/08/21 13:42:40;;;;;;;;;;;34.70;99.90;;;;;;5064977;28;19921;-70
2023/08/21 13:45:08;;;;;;;;;;;34.70;99.90;;;;;;5065100;28;20112;-70
2023/08/21 13:47:35;;;;;;;;;;;34.70;99.90;;;;;;5064809;28;20357;-71
2023/08/21 13:50:01;;;;;;;;;;;34.70;99.90;;;;;;5064838;28;19956;-71
2023/08/21 13:52:28;;;;;;;;;;;34.80;99.90;;;;;;5064517;28;19956;-70
2023/08/21 13:54:55;;;;;;;;;;;34.90;99.90;;;;;;5064861;28;20220;-70
2023/08/21 13:57:23;;;;;;;;;;;34.90;99.90;;;;;;5064490;28;19952;-70
2023/08/21 13:59:49;;;;;;;;;;;34.60;99.90;;;;;;5064382;28;19956;-70
2023/08/21 14:02:19;;;;;;;;;;;34.30;99.90;;;;;;5056983;28;19992;-70
2023/08/21 14:04:46;;;;;;;;;;;33.90;99.90;;;;;;5079027;28;19927;-69
2023/08/21 14:07:12;;;;;;;;;;;33.70;99.90;;;;;;5084303;28;19948;-70
2023/08/21 14:09:39;;;;;;;;;;;33.50;99.90;;;;;;5069094;28;19956;-70
2023/08/21 14:12:06;;;;;;;;;;;33.20;99.90;;;;;;5063916;28;19921;-70
2023/08/21 14:14:35;;;;;;;;;;;33.00;99.90;;;;;;5064362;28;19983;-69
2023/08/21 14:17:02;;;;;;;;;;;32.90;99.90;;;;;;5064086;28;19983;-70